Time;durP1;ratioP1;P1;durP2;ratioP2;P2;SDS_P1;SDS_P2;PMS_P1;PMS_P2;Temp;Humidity;BMP_temperature;BMP_pressure;BME280_temperature;BME280_humidity;BME280_pressure;Samples;Min_cycle;Max_cycle;Signal;HPM_P1;HPM_P2
2023/05/08 00:01:48;;;;;;;13.48;8.63;;;;;;;;;;5119211;27;20035;-80
2023/05/08 00:04:14;;;;;;;16.02;8.43;;;;;;;;;;5139033;27;20041;-82
2023/05/08 00:06:40;;;;;;;19.27;8.07;;;;;;;;;;5101163;27;20565;-81
2023/05/08 00:09:06;;;;;;;11.70;7.72;;;;;;;;;;5115773;27;20122;-80
2023/05/08 00:11:32;;;;;;;23.13;8.65;;;;;;;;;;5134746;27;20048;-80
2023/05/08 00:13:59;;;;;;;18.13;9.57;;;;;;;;;;5142435;27;20099;-81
2023/05/08 00:16:25;;;;;;;17.50;9.05;;;;;;;;;;5129095;28;20050;-81
2023/05/08 00:18:52;;;;;;;15.27;9.88;;;;;;;;;;5149988;27;20054;-81
2023/05/08 00:21:18;;;;;;;17.23;9.55;;;;;;;;;;5128978;27;20049;-82
2023/05/08 00:23:44;;;;;;;18.23;8.95;;;;;;;;;;5139727;27;20034;-81
2023/05/08 00:26:10;;;;;;;19.15;8.80;;;;;;;;;;5135412;27;20066;-80
2023/05/08 00:28:36;;;;;;;14.30;7.70;;;;;;;;;;5144077;27;20031;-82
2023/05/08 00:31:03;;;;;;;13.20;7.78;;;;;;;;;;5127836;27;20412;-82
2023/05/08 00:33:29;;;;;;;14.52;7.07;;;;;;;;;;5142302;27;20063;-81
2023/05/08 00:36:02;;;;;;;9.82;7.43;;;;;;;;;;5121958;27;20031;-83
2023/05/08 00:38:34;;;;;;;16.98;7.80;;;;;;;;;;5141765;27;20047;-82
2023/05/08 00:41:01;;;;;;;12.32;7.45;;;;;;;;;;5104492;28;20072;-81
2023/05/08 00:43:27;;;;;;;9.70;7.28;;;;;;;;;;5120130;27;20070;-81
2023/05/08 00:45:54;;;;;;;9.73;7.20;;;;;;;;;;5122630;27;20039;-81
2023/05/08 00:48:24;;;;;;;14.75;7.50;;;;;;;;;;5138964;27;20038;-81
2023/05/08 00:50:51;;;;;;;11.13;7.75;;;;;;;;;;5106142;27;20023;-81
2023/05/08 00:53:17;;;;;;;11.35;7.47;;;;;;;;;;5123650;28;20038;-80
2023/05/08 00:55:43;;;;;;;20.50;7.97;;;;;;;;;;5139052;27;20036;-80
2023/05/08 00:58:09;;;;;;;16.15;9.40;;;;;;;;;;5119826;27;20038;-81
2023/05/08 01:00:35;;;;;;;13.32;8.82;;;;;;;;;;5118169;28;20038;-80
2023/05/08 01:03:02;;;;;;;16.17;8.65;;;;;;;;;;5134252;27;20141;-80
2023/05/08 01:05:27;;;;;;;14.50;8.32;;;;;;;;;;5113617;27;20027;-80
2023/05/08 01:07:54;;;;;;;12.45;7.93;;;;;;;;;;5131983;27;20036;-80
2023/05/08 01:10:20;;;;;;;16.58;8.43;;;;;;;;;;5114589;27;20102;-80
2023/05/08 01:12:49;;;;;;;19.55;8.35;;;;;;;;;;5124115;27;20027;-81
2023/05/08 01:15:39;;;;;;;17.15;8.60;;;;;;;;;;5118097;28;20401;-81
2023/05/08 01:18:11;;;;;;;20.73;7.68;;;;;;;;;;5122091;27;20047;-81
2023/05/08 01:20:45;;;;;;;15.27;7.45;;;;;;;;;;5137106;27;20032;-82
2023/05/08 01:23:31;;;;;;;10.82;7.28;;;;;;;;;;5118210;28;20104;-81
2023/05/08 01:26:03;;;;;;;12.30;7.80;;;;;;;;;;5138207;27;20045;-81
2023/05/08 01:28:29;;;;;;;7.93;6.32;;;;;;;;;;5104548;27;20520;-81
2023/05/08 01:31:03;;;;;;;16.02;8.50;;;;;;;;;;5108306;27;20038;-81
2023/05/08 01:33:48;;;;;;;24.42;10.13;;;;;;;;;;5110416;27;20084;-81
2023/05/08 01:36:15;;;;;;;13.32;7.85;;;;;;;;;;5107125;27;20039;-81
2023/05/08 01:39:00;;;;;;;16.95;8.38;;;;;;;;;;5142990;27;20031;-81
2023/05/08 01:41:27;;;;;;;15.68;7.45;;;;;;;;;;5124180;27;20057;-78
2023/05/08 01:43:54;;;;;;;9.98;6.80;;;;;;;;;;5108793;27;20035;-81
2023/05/08 01:46:24;;;;;;;13.40;7.32;;;;;;;;;;5120942;27;20035;-82
2023/05/08 01:48:51;;;;;;;13.23;7.10;;;;;;;;;;5123547;27;20497;-81
2023/05/08 01:51:18;;;;;;;18.63;6.32;;;;;;;;;;5106999;27;20031;-81
2023/05/08 01:53:46;;;;;;;18.83;8.45;;;;;;;;;;5127724;27;20058;-80
2023/05/08 01:56:14;;;;;;;15.80;8.52;;;;;;;;;;5128441;27;20041;-81
2023/05/08 01:58:40;;;;;;;15.88;9.57;;;;;;;;;;5145254;27;20118;-82
2023/05/08 02:01:06;;;;;;;18.77;9.77;;;;;;;;;;5111074;27;20061;-82
2023/05/08 02:03:32;;;;;;;16.45;10.38;;;;;;;;;;5125710;27;20043;-81
2023/05/08 02:05:58;;;;;;;34.65;15.50;;;;;;;;;;5146694;27;20114;-83
2023/05/08 02:08:24;;;;;;;33.20;14.05;;;;;;;;;;5125268;27;20069;-80
2023/05/08 02:10:50;;;;;;;36.22;16.80;;;;;;;;;;5124627;27;20042;-81
2023/05/08 02:13:18;;;;;;;22.85;11.82;;;;;;;;;;5129197;27;20035;-81
2023/05/08 02:15:48;;;;;;;18.15;12.00;;;;;;;;;;5112141;27;20034;-81
2023/05/08 02:18:15;;;;;;;26.27;11.13;;;;;;;;;;5129913;27;20084;-81
2023/05/08 02:20:41;;;;;;;21.63;9.60;;;;;;;;;;5150670;27;20080;-82
2023/05/08 02:23:27;;;;;;;17.33;11.73;;;;;;;;;;5107839;27;20042;-81
2023/05/08 02:25:53;;;;;;;27.00;13.52;;;;;;;;;;5134263;27;20034;-83
2023/05/08 02:28:19;;;;;;;24.98;10.10;;;;;;;;;;5136555;27;20039;-83
2023/05/08 02:30:45;;;;;;;23.05;12.15;;;;;;;;;;5107108;27;20039;-80
2023/05/08 02:33:11;;;;;;;27.25;10.48;;;;;;;;;;5117458;27;20041;-80
2023/05/08 02:35:38;;;;;;;13.55;8.82;;;;;;;;;;5137185;27;20073;-81
2023/05/08 02:38:09;;;;;;;21.02;12.02;;;;;;;;;;5101305;27;20561;-79
2023/05/08 02:40:36;;;;;;;24.02;11.60;;;;;;;;;;5136628;27;20027;-80
2023/05/08 02:43:02;;;;;;;19.30;8.52;;;;;;;;;;5099683;27;20138;-79
2023/05/08 02:45:31;;;;;;;15.48;10.05;;;;;;;;;;5098136;27;20027;-79
2023/05/08 02:48:08;;;;;;;15.77;9.93;;;;;;;;;;5098381;27;20513;-79
2023/05/08 02:50:36;;;;;;;15.63;9.60;;;;;;;;;;5081135;27;20104;-79
2023/05/08 02:53:04;;;;;;;16.30;9.50;;;;;;;;;;5099489;27;20118;-80
2023/05/08 02:55:30;;;;;;;16.63;10.45;;;;;;;;;;5101175;27;20027;-81
2023/05/08 02:58:02;;;;;;;19.30;9.43;;;;;;;;;;5139085;27;20039;-81
2023/05/08 03:00:30;;;;;;;15.40;10.23;;;;;;;;;;5119098;27;20087;-80
2023/05/08 03:02:58;;;;;;;15.80;10.45;;;;;;;;;;5084972;27;20416;-80
2023/05/08 03:05:27;;;;;;;25.83;11.55;;;;;;;;;;5099917;27;20042;-80
2023/05/08 03:07:53;;;;;;;19.35;10.82;;;;;;;;;;5116084;27;20061;-81
2023/05/08 03:10:20;;;;;;;19.48;11.50;;;;;;;;;;5116904;27;20126;-81
2023/05/08 03:12:47;;;;;;;22.80;11.45;;;;;;;;;;5136480;27;20401;-80
2023/05/08 03:15:22;;;;;;;18.75;10.23;;;;;;;;;;5110452;27;20035;-83
2023/05/08 03:17:49;;;;;;;29.08;11.35;;;;;;;;;;5136114;27;20026;-82
2023/05/08 03:20:16;;;;;;;17.92;11.07;;;;;;;;;;5132436;27;20121;-81
2023/05/08 03:22:42;;;;;;;25.02;10.25;;;;;;;;;;5132510;27;20055;-82
2023/05/08 03:25:09;;;;;;;15.93;10.90;;;;;;;;;;5134232;27;20035;-81
2023/05/08 03:27:36;;;;;;;20.95;10.80;;;;;;;;;;5138725;27;20047;-83
2023/05/08 03:30:03;;;;;;;19.73;10.00;;;;;;;;;;5132276;27;20072;-82
2023/05/08 03:32:32;;;;;;;9.05;6.13;;;;;;;;;;5098762;27;20026;-81
2023/05/08 03:34:59;;;;;;;18.60;9.27;;;;;;;;;;5119886;27;20038;-83
2023/05/08 03:37:26;;;;;;;15.52;10.43;;;;;;;;;;5155293;27;20027;-82
2023/05/08 03:39:52;;;;;;;18.45;10.73;;;;;;;;;;5119574;27;20017;-83
2023/05/08 03:42:21;;;;;;;14.88;9.50;;;;;;;;;;5119473;27;20401;-82
2023/05/08 03:44:51;;;;;;;12.85;8.45;;;;;;;;;;5138366;27;20019;-83
2023/05/08 03:47:17;;;;;;;21.30;9.18;;;;;;;;;;5121956;27;20015;-85
2023/05/08 03:49:47;;;;;;;21.02;11.27;;;;;;;;;;5086601;28;20027;-83
2023/05/08 03:52:13;;;;;;;14.88;10.52;;;;;;;;;;5103053;28;20047;-84
2023/05/08 03:54:40;;;;;;;20.83;11.05;;;;;;;;;;5103602;28;20034;-83
2023/05/08 03:57:06;;;;;;;19.92;10.73;;;;;;;;;;5103135;28;20035;-81
2023/05/08 03:59:33;;;;;;;17.75;10.88;;;;;;;;;;5119577;28;20039;-82
2023/05/08 04:02:03;;;;;;;12.98;9.55;;;;;;;;;;5120159;28;20098;-83
2023/05/08 04:04:32;;;;;;;23.35;10.80;;;;;;;;;;5087271;28;20020;-81
2023/05/08 04:06:59;;;;;;;18.45;9.50;;;;;;;;;;5104011;28;20027;-83
2023/05/08 04:09:41;;;;;;;19.02;10.00;;;;;;;;;;5120695;28;20049;-81
2023/05/08 04:12:16;;;;;;;17.08;8.63;;;;;;;;;;5104134;28;20079;-81
2023/05/08 04:14:44;;;;;;;19.33;8.98;;;;;;;;;;5119202;28;20015;-82
2023/05/08 04:17:12;;;;;;;12.90;8.80;;;;;;;;;;5158610;22;20071;-82
2023/05/08 04:19:40;;;;;;;18.30;8.95;;;;;;;;;;5096628;28;20049;-81
2023/05/08 04:22:07;;;;;;;19.10;9.23;;;;;;;;;;5079437;28;20075;-80
2023/05/08 04:24:36;;;;;;;9.38;6.03;;;;;;;;;;5078830;28;20050;-81
2023/05/08 04:27:02;;;;;;;19.48;9.32;;;;;;;;;;5108018;22;20033;-81
2023/05/08 04:29:29;;;;;;;16.80;8.50;;;;;;;;;;5076283;28;20024;-81
2023/05/08 04:31:56;;;;;;;24.67;9.57;;;;;;;;;;5051879;28;20555;-80
2023/05/08 04:34:22;;;;;;;7.35;5.18;;;;;;;;;;5059069;28;20074;-80
2023/05/08 04:36:48;;;;;;;8.98;4.47;;;;;;;;;;5073335;28;20040;-80
2023/05/08 04:39:14;;;;;;;4.85;4.40;;;;;;;;;;5076514;28;20043;-80
2023/05/08 04:41:40;;;;;;;6.97;3.50;;;;;;;;;;5085637;28;20040;-81
2023/05/08 04:44:07;;;;;;;6.55;4.65;;;;;;;;;;5072978;28;20040;-81
2023/05/08 04:46:33;;;;;;;4.57;4.18;;;;;;;;;;5050084;28;20534;-80
2023/05/08 04:48:59;;;;;;;7.65;4.32;;;;;;;;;;5076136;28;20044;-80
2023/05/08 04:51:28;;;;;;;5.10;4.13;;;;;;;;;;5052580;28;20128;-78
2023/05/08 04:53:54;;;;;;;4.10;3.70;;;;;;;;;;5061932;28;20044;-78
2023/05/08 04:56:21;;;;;;;5.10;4.05;;;;;;;;;;5055635;28;20032;-76
2023/05/08 04:58:47;;;;;;;4.80;3.95;;;;;;;;;;5087489;28;20036;-78
2023/05/08 05:01:14;;;;;;;2.70;2.50;;;;;;;;;;5090729;28;20028;-76
2023/05/08 05:03:40;;;;;;;2.60;2.40;;;;;;;;;;5077302;28;20106;-79
2023/05/08 05:06:06;;;;;;;2.58;2.38;;;;;;;;;;5071168;28;20543;-80
2023/05/08 05:08:32;;;;;;;3.47;2.80;;;;;;;;;;5084662;28;20020;-83
2023/05/08 05:16:34;;;;;;;2.08;1.98;;;;;;;;;;5139689;22;20037;-82
2023/05/08 05:24:39;;;;;;;1.75;1.65;;;;;;;;;;5517965;22;20057;-82
2023/05/08 05:27:05;;;;;;;1.77;1.67;;;;;;;;;;5031067;28;20420;-81
2023/05/08 05:29:32;;;;;;;5.80;1.92;;;;;;;;;;5045627;28;20385;-80
2023/05/08 05:31:58;;;;;;;2.30;2.10;;;;;;;;;;5024071;28;20098;-82
2023/05/08 05:34:27;;;;;;;2.20;2.10;;;;;;;;;;5011540;28;20037;-82
2023/05/08 05:36:54;;;;;;;2.05;1.95;;;;;;;;;;5030875;28;20057;-82
2023/05/08 05:39:20;;;;;;;1.52;1.42;;;;;;;;;;5025422;28;20064;-82
2023/05/08 05:41:46;;;;;;;2.25;2.15;;;;;;;;;;5021515;28;20049;-79
2023/05/08 05:44:12;;;;;;;2.60;2.42;;;;;;;;;;5004645;28;20029;-79
2023/05/08 05:46:41;;;;;;;2.35;2.15;;;;;;;;;;5004196;28;20029;-79
2023/05/08 05:49:08;;;;;;;8.50;6.40;;;;;;;;;;5034296;28;20467;-79
2023/05/08 05:51:34;;;;;;;2.80;2.60;;;;;;;;;;5026516;28;20025;-81
2023/05/08 05:54:00;;;;;;;5.95;5.47;;;;;;;;;;5040941;28;20052;-84
2023/05/08 05:56:29;;;;;;;3.20;2.50;;;;;;;;;;5206448;22;20049;-83
2023/05/08 05:59:00;;;;;;;2.20;2.10;;;;;;;;;;5058360;28;20034;-84
2023/05/08 06:01:27;;;;;;;2.15;1.95;;;;;;;;;;5040707;28;20017;-81
2023/05/08 06:03:54;;;;;;;2.67;2.00;;;;;;;;;;5041671;28;20057;-82
2023/05/08 06:06:20;;;;;;;2.25;1.83;;;;;;;;;;5023552;28;20030;-82
2023/05/08 06:08:47;;;;;;;2.35;1.60;;;;;;;;;;5052804;28;20133;-79
2023/05/08 06:11:14;;;;;;;2.03;1.92;;;;;;;;;;5019777;28;20052;-80
2023/05/08 06:13:40;;;;;;;1.77;1.55;;;;;;;;;;5007101;28;20038;-83
2023/05/08 06:16:06;;;;;;;5.43;2.10;;;;;;;;;;5037256;28;20029;-78
2023/05/08 06:18:33;;;;;;;2.20;2.00;;;;;;;;;;5034439;28;20038;-80
2023/05/08 06:20:59;;;;;;;2.03;1.92;;;;;;;;;;5005207;28;20038;-80
2023/05/08 06:23:26;;;;;;;1.90;1.80;;;;;;;;;;5043279;28;20572;-80
2023/05/08 06:25:52;;;;;;;2.42;2.22;;;;;;;;;;5025267;28;20038;-82
2023/05/08 06:28:18;;;;;;;2.67;1.73;;;;;;;;;;5034680;28;20033;-82
2023/05/08 06:30:44;;;;;;;2.08;1.98;;;;;;;;;;5036101;28;20122;-80
2023/05/08 06:33:11;;;;;;;4.07;1.70;;;;;;;;;;5550251;22;20065;-84
2023/05/08 06:35:37;;;;;;;3.00;1.90;;;;;;;;;;5010187;28;20064;-84
2023/05/08 06:38:03;;;;;;;2.63;2.00;;;;;;;;;;5171094;22;20047;-82
2023/05/08 06:40:33;;;;;;;1.65;1.35;;;;;;;;;;5001926;28;20141;-81
2023/05/08 06:42:59;;;;;;;2.40;1.90;;;;;;;;;;5039243;28;20125;-85
2023/05/08 06:45:25;;;;;;;1.63;1.52;;;;;;;;;;5110634;23;20041;-83
2023/05/08 06:47:51;;;;;;;1.90;1.80;;;;;;;;;;5036398;28;20034;-84
2023/05/08 06:50:17;;;;;;;2.15;1.83;;;;;;;;;;5033593;28;20017;-82
2023/05/08 06:52:44;;;;;;;1.92;1.83;;;;;;;;;;5034796;28;20044;-82
2023/05/08 06:55:10;;;;;;;1.60;1.50;;;;;;;;;;5030568;28;20060;-82
2023/05/08 06:57:36;;;;;;;1.25;1.20;;;;;;;;;;5031615;28;20030;-82
2023/05/08 07:00:03;;;;;;;1.80;1.70;;;;;;;;;;5029347;28;20101;-82
2023/05/08 07:02:35;;;;;;;1.90;1.80;;;;;;;;;;5014721;28;20073;-82
2023/05/08 07:05:01;;;;;;;1.33;1.33;;;;;;;;;;5015067;28;20118;-81
2023/05/08 07:07:31;;;;;;;;;;;;;;;;;;5016058;28;20057;-82
2023/05/08 07:09:57;;;;;;;1.20;1.20;;;;;;;;;;5030856;28;19905;-83
2023/05/08 07:12:23;;;;;;;1.60;1.60;;;;;;;;;;5028022;28;20049;-81
2023/05/08 07:14:50;;;;;;;2.38;2.17;;;;;;;;;;5035420;28;20034;-82
2023/05/08 07:17:16;;;;;;;3.38;2.28;;;;;;;;;;5024332;28;20065;-81
2023/05/08 07:19:42;;;;;;;2.40;2.25;;;;;;;;;;5059942;28;20135;-82
2023/05/08 07:22:09;;;;;;;3.50;2.22;;;;;;;;;;4996197;28;20087;-82
2023/05/08 07:24:35;;;;;;;2.33;2.00;;;;;;;;;;5030814;28;20042;-82
2023/05/08 07:27:02;;;;;;;1.90;1.80;;;;;;;;;;5071764;23;20058;-81
2023/05/08 07:29:28;;;;;;;1.77;1.67;;;;;;;;;;5006802;28;20029;-81
2023/05/08 07:31:54;;;;;;;1.70;1.60;;;;;;;;;;5025377;28;20041;-83
2023/05/08 07:34:20;;;;;;;1.98;1.80;;;;;;;;;;5022581;28;20018;-84
2023/05/08 07:36:46;;;;;;;1.60;1.50;;;;;;;;;;5022971;28;20010;-84
2023/05/08 07:39:12;;;;;;;1.90;1.80;;;;;;;;;;5022881;28;20029;-85
2023/05/08 07:41:39;;;;;;;3.00;2.80;;;;;;;;;;5075174;22;20058;-85
2023/05/08 07:44:08;;;;;;;3.40;2.50;;;;;;;;;;5028987;28;20017;-84
2023/05/08 07:46:34;;;;;;;2.22;2.00;;;;;;;;;;5021397;28;20018;-86
2023/05/08 07:49:00;;;;;;;1.60;1.50;;;;;;;;;;5014663;28;20034;-85
2023/05/08 07:51:27;;;;;;;2.65;1.80;;;;;;;;;;5015273;28;20061;-84
2023/05/08 07:53:53;;;;;;;1.58;1.45;;;;;;;;;;5016716;28;20034;-84
2023/05/08 07:56:21;;;;;;;1.60;1.50;;;;;;;;;;5023837;28;20034;-84
2023/05/08 07:58:47;;;;;;;2.72;1.30;;;;;;;;;;5028976;28;20419;-81
2023/05/08 08:01:15;;;;;;;3.65;1.80;;;;;;;;;;5021054;28;20057;-82
2023/05/08 08:03:41;;;;;;;6.32;2.88;;;;;;;;;;5027397;28;20099;-82
2023/05/08 08:06:07;;;;;;;1.40;1.30;;;;;;;;;;5028912;28;20096;-82
2023/05/08 08:08:33;;;;;;;2.70;1.70;;;;;;;;;;5013122;28;20043;-80
2023/05/08 08:10:59;;;;;;;1.60;1.50;;;;;;;;;;5033401;28;20038;-84
2023/05/08 08:13:25;;;;;;;2.50;1.83;;;;;;;;;;4999255;28;20643;-85
2023/05/08 08:15:54;;;;;;;3.55;1.50;;;;;;;;;;4997207;28;20078;-82
2023/05/08 08:18:20;;;;;;;1.73;1.60;;;;;;;;;;5276307;22;20069;-83
2023/05/08 08:20:46;;;;;;;2.03;1.50;;;;;;;;;;5759398;22;20096;-84
2023/05/08 08:23:13;;;;;;;3.45;1.48;;;;;;;;;;5478728;22;20049;-84
2023/05/08 08:25:39;;;;;;;3.67;2.25;;;;;;;;;;5146532;23;20044;-84
2023/05/08 08:28:05;;;;;;;6.57;1.88;;;;;;;;;;5758039;22;20564;-79
2023/05/08 08:33:14;;;;;;;2.45;1.88;;;;;;;;;;5009995;28;20106;-82
2023/05/08 08:35:40;;;;;;;2.00;1.70;;;;;;;;;;5089477;22;20034;-85
2023/05/08 08:38:06;;;;;;;1.80;1.70;;;;;;;;;;5306151;22;20040;-84
2023/05/08 08:40:41;;;;;;;6.45;2.35;;;;;;;;;;5210219;22;20054;-84
2023/05/08 08:48:45;;;;;;;3.55;2.45;;;;;;;;;;5243914;22;20117;-85
2023/05/08 08:53:46;;;;;;;3.30;1.90;;;;;;;;;;5012910;28;20468;-82
2023/05/08 08:56:13;;;;;;;2.13;1.75;;;;;;;;;;5034633;28;20030;-81
2023/05/08 08:58:49;;;;;;;2.97;1.63;;;;;;;;;;5017640;28;20029;-79
2023/05/08 09:01:17;;;;;;;4.57;1.90;;;;;;;;;;5017586;28;20042;-81
2023/05/08 09:03:43;;;;;;;3.92;1.70;;;;;;;;;;5008156;28;20042;-80
2023/05/08 09:06:09;;;;;;;1.70;1.60;;;;;;;;;;5010327;28;20038;-82
2023/05/08 09:08:35;;;;;;;3.42;1.95;;;;;;;;;;5008726;28;20273;-82
2023/05/08 09:11:01;;;;;;;1.77;1.65;;;;;;;;;;4999426;28;20037;-81
2023/05/08 09:13:27;;;;;;;2.67;2.20;;;;;;;;;;5015711;28;20124;-80
2023/05/08 09:15:54;;;;;;;1.45;1.45;;;;;;;;;;4997806;28;20030;-81
2023/05/08 09:18:20;;;;;;;2.78;1.65;;;;;;;;;;5011738;28;20390;-82
2023/05/08 09:20:46;;;;;;;3.80;3.05;;;;;;;;;;5008254;28;20246;-83
2023/05/08 09:23:13;;;;;;;2.80;2.33;;;;;;;;;;5014591;28;20519;-82
2023/05/08 09:25:49;;;;;;;3.30;2.40;;;;;;;;;;5017009;28;20129;-82
2023/05/08 09:28:16;;;;;;;1.92;1.83;;;;;;;;;;5015734;28;20041;-82
2023/05/08 09:30:50;;;;;;;4.40;2.45;;;;;;;;;;5002992;28;20507;-82
2023/05/08 09:38:53;;;;;;;2.17;2.08;;;;;;;;;;6013453;22;21189;-83
2023/05/08 09:50:01;;;;;;;4.25;2.10;;;;;;;;;;5945040;22;20364;-85
2023/05/08 09:55:27;;;;;;;2.10;2.00;;;;;;;;;;5506395;22;20026;-79
2023/05/08 09:58:19;;;;;;;2.65;2.10;;;;;;;;;;5797170;22;20057;-89
2023/05/08 10:09:30;;;;;;;1.40;1.40;;;;;;;;;;5069560;22;20053;-84
2023/05/08 10:11:56;;;;;;;2.47;1.83;;;;;;;;;;5022749;28;20081;-81
2023/05/08 10:14:22;;;;;;;3.58;1.98;;;;;;;;;;5010716;28;20026;-76
2023/05/08 10:16:52;;;;;;;2.30;2.10;;;;;;;;;;4995184;28;20500;-75
2023/05/08 10:19:19;;;;;;;1.80;1.70;;;;;;;;;;5011037;28;20030;-75
2023/05/08 10:21:46;;;;;;;1.88;1.77;;;;;;;;;;5013156;28;20038;-75
2023/05/08 10:24:13;;;;;;;2.25;1.80;;;;;;;;;;5012019;28;20652;-75
2023/05/08 10:26:39;;;;;;;2.90;2.30;;;;;;;;;;4993057;28;20477;-76
2023/05/08 10:29:06;;;;;;;1.70;1.60;;;;;;;;;;4964064;28;20041;-75
2023/05/08 10:31:33;;;;;;;2.88;1.80;;;;;;;;;;5013558;28;20057;-75
2023/05/08 10:34:00;;;;;;;1.77;1.63;;;;;;;;;;4995599;28;20117;-75
2023/05/08 10:36:27;;;;;;;2.08;1.88;;;;;;;;;;4993818;28;20038;-74
2023/05/08 10:38:53;;;;;;;2.38;1.70;;;;;;;;;;4989344;28;20058;-77
2023/05/08 10:41:19;;;;;;;2.03;1.60;;;;;;;;;;4992774;28;21143;-76
2023/05/08 10:43:46;;;;;;;1.50;1.40;;;;;;;;;;4988500;28;20081;-75
2023/05/08 10:46:18;;;;;;;1.67;1.58;;;;;;;;;;4987683;28;20072;-76
2023/05/08 10:48:49;;;;;;;1.60;1.50;;;;;;;;;;4987907;28;20053;-75
2023/05/08 10:51:18;;;;;;;1.40;1.40;;;;;;;;;;4973490;28;20064;-73
2023/05/08 10:54:03;;;;;;;1.85;1.30;;;;;;;;;;4966526;28;20062;-74
2023/05/08 10:56:29;;;;;;;5.28;1.80;;;;;;;;;;4982637;28;20043;-74
2023/05/08 10:58:56;;;;;;;2.83;1.70;;;;;;;;;;4982769;28;20504;-80
2023/05/08 11:01:22;;;;;;;1.35;1.30;;;;;;;;;;4985919;28;20062;-76
2023/05/08 11:03:49;;;;;;;1.30;1.30;;;;;;;;;;4990613;28;20046;-77
2023/05/08 11:06:15;;;;;;;2.00;1.90;;;;;;;;;;4993218;28;20035;-79
2023/05/08 11:08:48;;;;;;;1.80;1.60;;;;;;;;;;4992203;28;20528;-78
2023/05/08 11:11:25;;;;;;;1.50;1.50;;;;;;;;;;4990727;28;20100;-77
2023/05/08 11:14:00;;;;;;;1.15;1.15;;;;;;;;;;4994082;28;20197;-77
2023/05/08 11:16:45;;;;;;;2.45;1.70;;;;;;;;;;4979464;28;20116;-76
2023/05/08 11:19:15;;;;;;;1.83;1.73;;;;;;;;;;5001583;28;20045;-76
2023/05/08 11:22:00;;;;;;;2.22;2.03;;;;;;;;;;5001592;28;20034;-76
2023/05/08 11:24:34;;;;;;;2.20;2.00;;;;;;;;;;4975928;28;20047;-77
2023/05/08 11:26:59;;;;;;;3.88;1.75;;;;;;;;;;4959650;28;20068;-77
2023/05/08 11:29:25;;;;;;;2.00;1.90;;;;;;;;;;4996378;28;20038;-77
2023/05/08 11:31:52;;;;;;;4.40;2.05;;;;;;;;;;5003874;28;20064;-75
2023/05/08 11:34:38;;;;;;;1.70;1.70;;;;;;;;;;5005199;28;20045;-76
2023/05/08 11:37:07;;;;;;;2.15;1.98;;;;;;;;;;5004547;28;20540;-75
2023/05/08 11:39:34;;;;;;;2.10;1.80;;;;;;;;;;4983221;28;20048;-76
2023/05/08 11:42:18;;;;;;;1.90;1.80;;;;;;;;;;4991356;28;20031;-77
2023/05/08 11:44:45;;;;;;;1.90;1.80;;;;;;;;;;4991461;28;20042;-77
2023/05/08 11:47:11;;;;;;;1.75;1.65;;;;;;;;;;4991791;28;20042;-77
2023/05/08 11:49:37;;;;;;;1.45;1.45;;;;;;;;;;4976237;28;20212;-77
2023/05/08 11:52:04;;;;;;;2.13;1.70;;;;;;;;;;4993043;28;20042;-77
2023/05/08 11:54:30;;;;;;;1.70;1.60;;;;;;;;;;4992124;28;20038;-76
2023/05/08 11:56:58;;;;;;;1.50;1.40;;;;;;;;;;4991167;28;20420;-76
2023/05/08 11:59:24;;;;;;;1.80;1.70;;;;;;;;;;4992002;28;20497;-77
2023/05/08 12:01:50;;;;;;;3.10;1.90;;;;;;;;;;4991263;28;20109;-76
2023/05/08 12:04:16;;;;;;;2.20;2.00;;;;;;;;;;4974185;28;20054;-77
2023/05/08 12:06:43;;;;;;;3.28;2.33;;;;;;;;;;4991613;28;20041;-77
2023/05/08 12:09:10;;;;;;;3.63;2.10;;;;;;;;;;4990322;28;20058;-76
2023/05/08 12:11:36;;;;;;;2.17;1.98;;;;;;;;;;4991631;28;20057;-77
2023/05/08 12:14:03;;;;;;;1.58;1.48;;;;;;;;;;4973827;28;20473;-77
2023/05/08 12:16:29;;;;;;;2.30;1.30;;;;;;;;;;4991780;28;20045;-77
2023/05/08 12:18:55;;;;;;;1.95;1.67;;;;;;;;;;4991576;28;20405;-77
2023/05/08 12:21:21;;;;;;;1.65;1.65;;;;;;;;;;4991278;28;20086;-76
2023/05/08 12:23:47;;;;;;;2.00;1.38;;;;;;;;;;4991164;28;20050;-75
2023/05/08 12:26:14;;;;;;;1.90;1.80;;;;;;;;;;4992042;28;20031;-77
2023/05/08 12:28:40;;;;;;;4.20;1.80;;;;;;;;;;4992066;28;20038;-77
2023/05/08 12:31:07;;;;;;;2.00;1.90;;;;;;;;;;4973848;28;20034;-76
2023/05/08 12:33:34;;;;;;;1.80;1.70;;;;;;;;;;4974124;28;20046;-76
2023/05/08 12:36:00;;;;;;;3.08;1.90;;;;;;;;;;4991524;28;20061;-77
2023/05/08 12:38:26;;;;;;;4.35;1.80;;;;;;;;;;4993561;28;20034;-77
2023/05/08 12:40:54;;;;;;;2.13;1.92;;;;;;;;;;4990298;28;20045;-76
2023/05/08 12:43:20;;;;;;;2.30;2.10;;;;;;;;;;5009021;28;20193;-77
2023/05/08 12:45:47;;;;;;;2.03;1.65;;;;;;;;;;4992859;28;20107;-77
2023/05/08 12:48:14;;;;;;;2.95;1.83;;;;;;;;;;5006125;28;20520;-76
2023/05/08 12:50:40;;;;;;;2.00;1.90;;;;;;;;;;5002413;28;20042;-77
2023/05/08 12:53:10;;;;;;;10.07;2.25;;;;;;;;;;4977075;28;20072;-76
2023/05/08 12:55:36;;;;;;;2.00;1.90;;;;;;;;;;4990276;28;20410;-76
2023/05/08 12:58:04;;;;;;;2.25;2.13;;;;;;;;;;4990239;28;20034;-76
2023/05/08 13:00:37;;;;;;;7.82;1.90;;;;;;;;;;4991162;28;20125;-76
2023/05/08 13:03:03;;;;;;;2.13;1.83;;;;;;;;;;4989287;28;20156;-77
2023/05/08 13:05:30;;;;;;;2.25;2.03;;;;;;;;;;4989469;28;20540;-77
2023/05/08 13:07:59;;;;;;;2.95;1.85;;;;;;;;;;4990246;28;20133;-76
2023/05/08 13:10:25;;;;;;;3.17;2.05;;;;;;;;;;4973430;28;20121;-77
2023/05/08 13:12:51;;;;;;;1.95;1.85;;;;;;;;;;4990629;28;20129;-76
2023/05/08 13:15:17;;;;;;;2.22;2.10;;;;;;;;;;4990919;28;20030;-76
2023/05/08 13:17:43;;;;;;;2.45;1.60;;;;;;;;;;4990568;28;20125;-76
2023/05/08 13:20:10;;;;;;;2.60;2.40;;;;;;;;;;4989215;28;20760;-76
2023/05/08 13:22:36;;;;;;;2.40;2.20;;;;;;;;;;4990636;28;20061;-76
2023/05/08 13:25:02;;;;;;;2.38;2.17;;;;;;;;;;4990754;28;20034;-76
2023/05/08 13:27:29;;;;;;;5.40;2.60;;;;;;;;;;4993029;28;20527;-77
2023/05/08 13:29:55;;;;;;;4.25;2.10;;;;;;;;;;4976729;28;20035;-76
2023/05/08 13:32:21;;;;;;;3.22;1.80;;;;;;;;;;4994190;28;20074;-76
2023/05/08 13:34:47;;;;;;;4.30;2.42;;;;;;;;;;4994025;28;20030;-76
2023/05/08 13:37:13;;;;;;;3.45;2.25;;;;;;;;;;4994113;28;20127;-76
2023/05/08 13:39:40;;;;;;;2.30;2.10;;;;;;;;;;4993962;28;20458;-76
2023/05/08 13:42:06;;;;;;;4.30;2.20;;;;;;;;;;4993759;28;20543;-76
2023/05/08 13:44:32;;;;;;;2.20;2.00;;;;;;;;;;4993764;28;20050;-76
2023/05/08 13:46:57;;;;;;;7.10;2.20;;;;;;;;;;4992223;28;20034;-77
2023/05/08 13:49:25;;;;;;;2.22;2.05;;;;;;;;;;4993686;28;20133;-76
2023/05/08 13:51:51;;;;;;;5.57;2.65;;;;;;;;;;4992102;28;20040;-75
2023/05/08 13:54:17;;;;;;;2.55;2.35;;;;;;;;;;4993924;28;20549;-76
2023/05/08 13:56:43;;;;;;;4.05;2.20;;;;;;;;;;4992152;28;20030;-76
2023/05/08 13:59:10;;;;;;;2.05;1.95;;;;;;;;;;4993916;28;20041;-77
2023/05/08 14:01:35;;;;;;;1.88;1.77;;;;;;;;;;4994297;28;20033;-78
2023/05/08 14:04:02;;;;;;;2.20;2.00;;;;;;;;;;4992704;28;20434;-77
2023/05/08 14:06:28;;;;;;;2.08;1.98;;;;;;;;;;4992299;28;20034;-78
2023/05/08 14:08:54;;;;;;;2.38;2.10;;;;;;;;;;4993642;28;20082;-78
2023/05/08 14:11:21;;;;;;;2.72;2.53;;;;;;;;;;4993933;28;20413;-78
2023/05/08 14:13:47;;;;;;;7.45;2.22;;;;;;;;;;4995003;28;20034;-78
2023/05/08 14:16:16;;;;;;;3.45;2.20;;;;;;;;;;4978734;28;20045;-79
2023/05/08 14:18:42;;;;;;;3.58;2.20;;;;;;;;;;4994492;28;20035;-79
2023/05/08 14:21:08;;;;;;;2.30;2.10;;;;;;;;;;4977878;28;20034;-77
2023/05/08 14:23:36;;;;;;;1.98;1.88;;;;;;;;;;4994880;28;20042;-78
2023/05/08 14:26:02;;;;;;;2.42;2.22;;;;;;;;;;4976367;28;20030;-77
2023/05/08 14:28:28;;;;;;;2.22;2.10;;;;;;;;;;4994519;28;20128;-77
2023/05/08 14:30:55;;;;;;;4.20;2.17;;;;;;;;;;4993535;28;20030;-77
2023/05/08 14:33:20;;;;;;;2.58;2.42;;;;;;;;;;4993189;28;20129;-77
2023/05/08 14:35:47;;;;;;;2.08;1.98;;;;;;;;;;4993079;28;20125;-77
2023/05/08 14:38:13;;;;;;;2.40;2.20;;;;;;;;;;4992015;28;20045;-77
2023/05/08 14:40:39;;;;;;;5.78;3.50;;;;;;;;;;4993162;28;20054;-77
2023/05/08 14:43:05;;;;;;;2.92;2.10;;;;;;;;;;4992856;28;20084;-77
2023/05/08 14:45:34;;;;;;;2.17;2.08;;;;;;;;;;4991768;28;20077;-76
2023/05/08 14:48:00;;;;;;;2.90;2.10;;;;;;;;;;4992187;28;20096;-76
2023/05/08 14:50:29;;;;;;;2.08;1.88;;;;;;;;;;4976076;28;20479;-78
2023/05/08 14:52:55;;;;;;;2.67;2.40;;;;;;;;;;4975973;28;20039;-77
2023/05/08 14:55:21;;;;;;;2.20;2.10;;;;;;;;;;4975628;28;20053;-77
2023/05/08 14:57:46;;;;;;;2.25;1.90;;;;;;;;;;4993306;28;20034;-77
2023/05/08 15:00:13;;;;;;;2.83;2.47;;;;;;;;;;4992266;28;20026;-77
2023/05/08 15:02:39;;;;;;;2.60;1.88;;;;;;;;;;4998313;28;20699;-77
2023/05/08 15:05:05;;;;;;;3.53;2.08;;;;;;;;;;5003855;28;20181;-77
2023/05/08 15:07:31;;;;;;;2.78;2.20;;;;;;;;;;4998148;28;20137;-77
2023/05/08 15:09:57;;;;;;;8.98;2.10;;;;;;;;;;4995763;28;20476;-78
2023/05/08 15:12:23;;;;;;;2.85;2.30;;;;;;;;;;4993960;28;20112;-77
2023/05/08 15:14:50;;;;;;;3.47;2.10;;;;;;;;;;4992913;28;20425;-76
2023/05/08 15:17:16;;;;;;;3.45;2.45;;;;;;;;;;4991320;28;20515;-77
2023/05/08 15:19:42;;;;;;;3.30;2.35;;;;;;;;;;4992575;28;20499;-77
2023/05/08 15:22:08;;;;;;;4.85;2.25;;;;;;;;;;4991371;28;20038;-77
2023/05/08 15:24:34;;;;;;;2.33;2.00;;;;;;;;;;4992781;28;20042;-77
2023/05/08 15:27:00;;;;;;;3.22;2.00;;;;;;;;;;4992144;28;20120;-78
2023/05/08 15:29:26;;;;;;;2.22;2.08;;;;;;;;;;4975078;28;20484;-77